sensor_id;sensor_type;location;lat;lon;timestamp;temperature;humidity
23065;DHT22;17153;51.212;3.228;2022-08-21T00:00:12;21.50;96.40
23065;DHT22;17153;51.212;3.228;2022-08-21T00:02:49;21.50;96.50
23065;DHT22;17153;51.212;3.228;2022-08-21T00:05:16;21.40;96.60
23065;DHT22;17153;51.212;3.228;2022-08-21T00:07:42;21.30;96.70
23065;DHT22;17153;51.212;3.228;2022-08-21T00:10:09;21.30;96.70
23065;DHT22;17153;51.212;3.228;2022-08-21T00:12:34;21.30;96.90
23065;DHT22;17153;51.212;3.228;2022-08-21T00:15:00;21.20;97.00
23065;DHT22;17153;51.212;3.228;2022-08-21T00:17:26;21.20;97.10
23065;DHT22;17153;51.212;3.228;2022-08-21T00:19:51;21.20;97.20
23065;DHT22;17153;51.212;3.228;2022-08-21T00:22:17;21.20;97.30
23065;DHT22;17153;51.212;3.228;2022-08-21T00:24:43;21.20;97.30
23065;DHT22;17153;51.212;3.228;2022-08-21T00:27:08;21.10;97.40
23065;DHT22;17153;51.212;3.228;2022-08-21T00:29:34;21.10;97.40
23065;DHT22;17153;51.212;3.228;2022-08-21T00:31:59;21.10;97.50
23065;DHT22;17153;51.212;3.228;2022-08-21T00:34:25;21.00;97.60
23065;DHT22;17153;51.212;3.228;2022-08-21T00:36:51;21.00;97.70
23065;DHT22;17153;51.212;3.228;2022-08-21T00:39:17;21.00;97.70
23065;DHT22;17153;51.212;3.228;2022-08-21T00:41:42;21.00;97.70
23065;DHT22;17153;51.212;3.228;2022-08-21T00:44:10;21.00;97.80
23065;DHT22;17153;51.212;3.228;2022-08-21T00:46:37;21.00;97.80
23065;DHT22;17153;51.212;3.228;2022-08-21T00:49:04;20.90;97.80
23065;DHT22;17153;51.212;3.228;2022-08-21T00:51:39;20.90;97.80
23065;DHT22;17153;51.212;3.228;2022-08-21T00:54:07;20.90;97.80
23065;DHT22;17153;51.212;3.228;2022-08-21T00:56:33;20.80;97.90
23065;DHT22;17153;51.212;3.228;2022-08-21T00:59:00;20.70;98.00
23065;DHT22;17153;51.212;3.228;2022-08-21T01:01:26;20.70;98.10
23065;DHT22;17153;51.212;3.228;2022-08-21T01:03:52;20.60;98.20
23065;DHT22;17153;51.212;3.228;2022-08-21T01:06:18;20.60;98.30
23065;DHT22;17153;51.212;3.228;2022-08-21T01:08:44;20.50;98.40
23065;DHT22;17153;51.212;3.228;2022-08-21T01:11:10;20.50;98.50
23065;DHT22;17153;51.212;3.228;2022-08-21T01:13:36;20.50;98.50
23065;DHT22;17153;51.212;3.228;2022-08-21T01:16:08;20.50;98.50
23065;DHT22;17153;51.212;3.228;2022-08-21T01:18:34;20.50;98.60
23065;DHT22;17153;51.212;3.228;2022-08-21T01:23:33;20.30;99.00
23065;DHT22;17153;51.212;3.228;2022-08-21T01:25:59;20.30;99.00
23065;DHT22;17153;51.212;3.228;2022-08-21T01:28:26;20.20;99.10
23065;DHT22;17153;51.212;3.228;2022-08-21T01:30:56;20.20;99.20
23065;DHT22;17153;51.212;3.228;2022-08-21T01:33:24;20.10;99.40
23065;DHT22;17153;51.212;3.228;2022-08-21T01:35:50;20.10;99.40
23065;DHT22;17153;51.212;3.228;2022-08-21T01:38:16;20.00;99.60
23065;DHT22;17153;51.212;3.228;2022-08-21T01:40:41;19.90;99.60
23065;DHT22;17153;51.212;3.228;2022-08-21T01:43:07;19.90;99.80
23065;DHT22;17153;51.212;3.228;2022-08-21T01:45:33;19.90;99.70
23065;DHT22;17153;51.212;3.228;2022-08-21T01:47:58;19.90;99.80
23065;DHT22;17153;51.212;3.228;2022-08-21T01:50:24;19.80;99.90
23065;DHT22;17153;51.212;3.228;2022-08-21T01:52:50;19.80;99.90
23065;DHT22;17153;51.212;3.228;2022-08-21T01:55:19;19.80;99.90
23065;DHT22;17153;51.212;3.228;2022-08-21T01:57:45;19.80;99.90
23065;DHT22;17153;51.212;3.228;2022-08-21T02:00:13;19.70;99.90
23065;DHT22;17153;51.212;3.228;2022-08-21T02:02:40;19.80;99.90
23065;DHT22;17153;51.212;3.228;2022-08-21T02:05:08;19.80;99.90
23065;DHT22;17153;51.212;3.228;2022-08-21T02:07:39;19.80;99.90
23065;DHT22;17153;51.212;3.228;2022-08-21T02:10:07;19.90;99.90
23065;DHT22;17153;51.212;3.228;2022-08-21T02:12:33;19.90;99.90
23065;DHT22;17153;51.212;3.228;2022-08-21T02:14:59;19.90;99.90
23065;DHT22;17153;51.212;3.228;2022-08-21T02:17:24;20.00;99.90
23065;DHT22;17153;51.212;3.228;2022-08-21T02:19:50;19.90;99.90
23065;DHT22;17153;51.212;3.228;2022-08-21T02:22:15;19.90;99.90
23065;DHT22;17153;51.212;3.228;2022-08-21T02:24:41;19.90;99.90
23065;DHT22;17153;51.212;3.228;2022-08-21T02:27:07;19.90;99.90
23065;DHT22;17153;51.212;3.228;2022-08-21T02:29:32;19.90;99.90
23065;DHT22;17153;51.212;3.228;2022-08-21T02:31:58;19.90;99.90
23065;DHT22;17153;51.212;3.228;2022-08-21T02:34:24;19.80;99.90
23065;DHT22;17153;51.212;3.228;2022-08-21T02:36:50;19.90;99.90
23065;DHT22;17153;51.212;3.228;2022-08-21T02:39:16;19.90;99.90
23065;DHT22;17153;51.212;3.228;2022-08-21T02:41:42;19.90;99.90
23065;DHT22;17153;51.212;3.228;2022-08-21T02:44:07;19.80;99.90
23065;DHT22;17153;51.212;3.228;2022-08-21T02:46:33;19.80;99.90
23065;DHT22;17153;51.212;3.228;2022-08-21T02:48:59;19.80;99.90
23065;DHT22;17153;51.212;3.228;2022-08-21T02:51:25;19.80;99.90
23065;DHT22;17153;51.212;3.228;2022-08-21T02:53:51;19.70;99.90
23065;DHT22;17153;51.212;3.228;2022-08-21T02:56:19;19.80;99.90
23065;DHT22;17153;51.212;3.228;2022-08-21T02:58:48;19.70;99.90
23065;DHT22;17153;51.212;3.228;2022-08-21T03:01:14;19.70;99.90
23065;DHT22;17153;51.212;3.228;2022-08-21T03:03:43;19.70;99.90
23065;DHT22;17153;51.212;3.228;2022-08-21T03:06:11;19.70;99.90
23065;DHT22;17153;51.212;3.228;2022-08-21T03:08:37;19.60;99.90
23065;DHT22;17153;51.212;3.228;2022-08-21T03:11:03;19.60;99.90
23065;DHT22;17153;51.212;3.228;2022-08-21T03:13:29;19.60;99.90
23065;DHT22;17153;51.212;3.228;2022-08-21T03:15:55;19.60;99.90
23065;DHT22;17153;51.212;3.228;2022-08-21T03:18:20;19.50;99.90
23065;DHT22;17153;51.212;3.228;2022-08-21T03:20:46;19.50;99.90
23065;DHT22;17153;51.212;3.228;2022-08-21T03:23:13;19.40;99.90
23065;DHT22;17153;51.212;3.228;2022-08-21T03:25:39;19.50;99.90
23065;DHT22;17153;51.212;3.228;2022-08-21T03:28:07;19.40;99.90
23065;DHT22;17153;51.212;3.228;2022-08-21T03:30:33;19.40;99.90
23065;DHT22;17153;51.212;3.228;2022-08-21T03:32:59;19.40;99.90
23065;DHT22;17153;51.212;3.228;2022-08-21T03:35:26;19.40;99.90
23065;DHT22;17153;51.212;3.228;2022-08-21T03:37:53;19.40;99.90
23065;DHT22;17153;51.212;3.228;2022-08-21T03:40:20;19.40;99.90
23065;DHT22;17153;51.212;3.228;2022-08-21T03:42:46;19.40;99.90
23065;DHT22;17153;51.212;3.228;2022-08-21T03:45:14;19.40;99.90
23065;DHT22;17153;51.212;3.228;2022-08-21T03:47:55;19.30;99.90
23065;DHT22;17153;51.212;3.228;2022-08-21T03:50:22;19.30;99.90
23065;DHT22;17153;51.212;3.228;2022-08-21T03:52:48;19.30;99.90
23065;DHT22;17153;51.212;3.228;2022-08-21T03:55:14;19.40;99.90
23065;DHT22;17153;51.212;3.228;2022-08-21T03:57:40;19.40;99.90
23065;DHT22;17153;51.212;3.228;2022-08-21T04:00:06;19.30;99.90
23065;DHT22;17153;51.212;3.228;2022-08-21T04:02:34;19.30;99.90
23065;DHT22;17153;51.212;3.228;2022-08-21T04:04:59;19.30;99.90
23065;DHT22;17153;51.212;3.228;2022-08-21T04:07:25;19.30;99.90
23065;DHT22;17153;51.212;3.228;2022-08-21T04:09:50;19.30;99.90
23065;DHT22;17153;51.212;3.228;2022-08-21T04:12:16;19.30;99.90
23065;DHT22;17153;51.212;3.228;2022-08-21T04:14:42;19.30;99.90
23065;DHT22;17153;51.212;3.228;2022-08-21T04:17:07;19.30;99.90
23065;DHT22;17153;51.212;3.228;2022-08-21T04:19:33;19.30;99.90
23065;DHT22;17153;51.212;3.228;2022-08-21T04:21:58;19.30;99.90
23065;DHT22;17153;51.212;3.228;2022-08-21T04:24:24;19.30;99.90
23065;DHT22;17153;51.212;3.228;2022-08-21T04:26:50;19.30;99.90
23065;DHT22;17153;51.212;3.228;2022-08-21T04:29:15;19.30;99.90
23065;DHT22;17153;51.212;3.228;2022-08-21T04:31:41;19.30;99.90
23065;DHT22;17153;51.212;3.228;2022-08-21T04:34:08;19.40;99.90
23065;DHT22;17153;51.212;3.228;2022-08-21T04:36:34;19.40;99.90
23065;DHT22;17153;51.212;3.228;2022-08-21T04:39:01;19.40;99.90
23065;DHT22;17153;51.212;3.228;2022-08-21T04:41:27;19.40;99.90
23065;DHT22;17153;51.212;3.228;2022-08-21T04:43:54;19.40;99.90
23065;DHT22;17153;51.212;3.228;2022-08-21T04:46:21;19.40;99.90
23065;DHT22;17153;51.212;3.228;2022-08-21T04:48:47;19.40;99.90
23065;DHT22;17153;51.212;3.228;2022-08-21T04:51:15;19.50;99.90
23065;DHT22;17153;51.212;3.228;2022-08-21T04:53:52;19.40;99.90
23065;DHT22;17153;51.212;3.228;2022-08-21T04:56:25;19.40;99.90
23065;DHT22;17153;51.212;3.228;2022-08-21T04:58:53;19.40;99.90
23065;DHT22;17153;51.212;3.228;2022-08-21T05:01:23;19.40;99.90
23065;DHT22;17153;51.212;3.228;2022-08-21T05:03:52;19.40;99.90
23065;DHT22;17153;51.212;3.228;2022-08-21T05:06:19;19.40;99.90
23065;DHT22;17153;51.212;3.228;2022-08-21T05:08:47;19.40;99.90
23065;DHT22;17153;51.212;3.228;2022-08-21T05:11:14;19.40;99.90
23065;DHT22;17153;51.212;3.228;2022-08-21T05:13:39;19.40;99.90
23065;DHT22;17153;51.212;3.228;2022-08-21T05:16:08;19.50;99.90
23065;DHT22;17153;51.212;3.228;2022-08-21T05:18:34;19.50;99.90
23065;DHT22;17153;51.212;3.228;2022-08-21T05:20:59;19.50;99.90
23065;DHT22;17153;51.212;3.228;2022-08-21T05:23:25;19.50;99.90
23065;DHT22;17153;51.212;3.228;2022-08-21T05:25:52;19.60;99.90
23065;DHT22;17153;51.212;3.228;2022-08-21T05:28:18;19.60;99.90
23065;DHT22;17153;51.212;3.228;2022-08-21T05:30:44;19.60;99.90
23065;DHT22;17153;51.212;3.228;2022-08-21T05:33:10;19.60;99.90
23065;DHT22;17153;51.212;3.228;2022-08-21T05:35:37;19.60;99.90
23065;DHT22;17153;51.212;3.228;2022-08-21T05:38:04;19.60;99.90
23065;DHT22;17153;51.212;3.228;2022-08-21T05:40:30;19.60;99.90
23065;DHT22;17153;51.212;3.228;2022-08-21T05:42:56;19.60;99.90
23065;DHT22;17153;51.212;3.228;2022-08-21T05:45:28;19.60;99.90
23065;DHT22;17153;51.212;3.228;2022-08-21T05:47:54;19.70;99.90
23065;DHT22;17153;51.212;3.228;2022-08-21T05:50:20;19.60;99.90
23065;DHT22;17153;51.212;3.228;2022-08-21T05:52:46;19.60;99.90
23065;DHT22;17153;51.212;3.228;2022-08-21T05:55:11;19.70;99.90
23065;DHT22;17153;51.212;3.228;2022-08-21T05:57:37;19.70;99.90
23065;DHT22;17153;51.212;3.228;2022-08-21T06:00:07;19.70;99.90
23065;DHT22;17153;51.212;3.228;2022-08-21T06:02:34;19.70;99.90
23065;DHT22;17153;51.212;3.228;2022-08-21T06:05:00;19.70;99.90
23065;DHT22;17153;51.212;3.228;2022-08-21T06:07:26;19.70;99.90
23065;DHT22;17153;51.212;3.228;2022-08-21T06:09:52;19.70;99.90
23065;DHT22;17153;51.212;3.228;2022-08-21T06:12:17;19.80;99.90
23065;DHT22;17153;51.212;3.228;2022-08-21T06:14:43;19.80;99.90
23065;DHT22;17153;51.212;3.228;2022-08-21T06:17:11;19.90;99.90
23065;DHT22;17153;51.212;3.228;2022-08-21T06:19:37;19.90;99.90
23065;DHT22;17153;51.212;3.228;2022-08-21T06:22:03;19.90;99.90
23065;DHT22;17153;51.212;3.228;2022-08-21T06:24:30;19.90;99.90
23065;DHT22;17153;51.212;3.228;2022-08-21T06:26:56;19.90;99.90
23065;DHT22;17153;51.212;3.228;2022-08-21T06:29:22;20.00;99.90
23065;DHT22;17153;51.212;3.228;2022-08-21T06:31:49;20.00;99.90
23065;DHT22;17153;51.212;3.228;2022-08-21T06:34:16;20.00;99.90
23065;DHT22;17153;51.212;3.228;2022-08-21T06:36:42;20.10;99.90
23065;DHT22;17153;51.212;3.228;2022-08-21T06:39:07;20.10;99.90
23065;DHT22;17153;51.212;3.228;2022-08-21T06:41:33;20.10;99.90
23065;DHT22;17153;51.212;3.228;2022-08-21T06:43:59;20.20;99.90
23065;DHT22;17153;51.212;3.228;2022-08-21T06:46:27;20.20;99.90
23065;DHT22;17153;51.212;3.228;2022-08-21T06:48:54;20.30;99.90
23065;DHT22;17153;51.212;3.228;2022-08-21T06:51:20;20.30;99.90
23065;DHT22;17153;51.212;3.228;2022-08-21T06:53:45;20.30;99.90
23065;DHT22;17153;51.212;3.228;2022-08-21T06:56:11;20.40;99.90
23065;DHT22;17153;51.212;3.228;2022-08-21T06:58:37;20.40;99.90
23065;DHT22;17153;51.212;3.228;2022-08-21T07:01:03;20.50;99.90
23065;DHT22;17153;51.212;3.228;2022-08-21T07:03:33;20.50;99.90
23065;DHT22;17153;51.212;3.228;2022-08-21T07:05:58;20.60;99.90
23065;DHT22;17153;51.212;3.228;2022-08-21T07:08:25;20.60;99.90
23065;DHT22;17153;51.212;3.228;2022-08-21T07:10:54;20.70;99.90
23065;DHT22;17153;51.212;3.228;2022-08-21T07:13:20;20.80;99.90
23065;DHT22;17153;51.212;3.228;2022-08-21T07:15:46;20.80;99.90
23065;DHT22;17153;51.212;3.228;2022-08-21T07:18:12;20.80;99.90
23065;DHT22;17153;51.212;3.228;2022-08-21T07:20:38;20.80;99.90
23065;DHT22;17153;51.212;3.228;2022-08-21T07:23:08;20.90;99.90
23065;DHT22;17153;51.212;3.228;2022-08-21T07:25:34;20.90;99.90
23065;DHT22;17153;51.212;3.228;2022-08-21T07:28:00;20.90;99.90
23065;DHT22;17153;51.212;3.228;2022-08-21T07:30:26;20.90;99.90
23065;DHT22;17153;51.212;3.228;2022-08-21T07:32:52;20.90;99.90
23065;DHT22;17153;51.212;3.228;2022-08-21T07:35:19;21.00;99.90
23065;DHT22;17153;51.212;3.228;2022-08-21T07:37:45;21.00;99.90
23065;DHT22;17153;51.212;3.228;2022-08-21T07:40:10;21.10;99.90
23065;DHT22;17153;51.212;3.228;2022-08-21T07:42:41;21.20;99.90
23065;DHT22;17153;51.212;3.228;2022-08-21T07:45:07;21.20;99.90
23065;DHT22;17153;51.212;3.228;2022-08-21T07:47:33;21.20;99.90
23065;DHT22;17153;51.212;3.228;2022-08-21T07:49:59;21.20;99.90
23065;DHT22;17153;51.212;3.228;2022-08-21T07:52:24;21.30;99.90
23065;DHT22;17153;51.212;3.228;2022-08-21T07:54:50;21.30;99.90
23065;DHT22;17153;51.212;3.228;2022-08-21T07:57:16;21.30;99.90
23065;DHT22;17153;51.212;3.228;2022-08-21T07:59:41;21.30;99.90
23065;DHT22;17153;51.212;3.228;2022-08-21T08:02:07;21.40;99.90
23065;DHT22;17153;51.212;3.228;2022-08-21T08:04:33;21.40;99.90
23065;DHT22;17153;51.212;3.228;2022-08-21T08:06:58;21.40;99.90
23065;DHT22;17153;51.212;3.228;2022-08-21T08:09:24;21.40;99.90
23065;DHT22;17153;51.212;3.228;2022-08-21T08:11:50;21.50;99.90
23065;DHT22;17153;51.212;3.228;2022-08-21T08:14:18;21.50;99.90
23065;DHT22;17153;51.212;3.228;2022-08-21T08:16:43;21.50;99.90
23065;DHT22;17153;51.212;3.228;2022-08-21T08:19:09;21.50;99.90
23065;DHT22;17153;51.212;3.228;2022-08-21T08:21:35;21.60;99.90
23065;DHT22;17153;51.212;3.228;2022-08-21T08:24:03;21.70;99.90
23065;DHT22;17153;51.212;3.228;2022-08-21T08:26:28;21.70;99.90
23065;DHT22;17153;51.212;3.228;2022-08-21T08:28:54;21.80;99.90
23065;DHT22;17153;51.212;3.228;2022-08-21T08:31:20;21.80;99.90
23065;DHT22;17153;51.212;3.228;2022-08-21T08:33:45;21.90;99.90
23065;DHT22;17153;51.212;3.228;2022-08-21T08:36:16;21.90;99.90
23065;DHT22;17153;51.212;3.228;2022-08-21T08:38:43;22.00;99.90
23065;DHT22;17153;51.212;3.228;2022-08-21T08:43:44;22.00;99.90
23065;DHT22;17153;51.212;3.228;2022-08-21T08:46:16;22.10;99.90
23065;DHT22;17153;51.212;3.228;2022-08-21T08:48:53;22.10;99.90
23065;DHT22;17153;51.212;3.228;2022-08-21T08:51:48;22.10;99.90
23065;DHT22;17153;51.212;3.228;2022-08-21T08:54:32;22.10;99.90
23065;DHT22;17153;51.212;3.228;2022-08-21T08:57:00;22.10;99.90
23065;DHT22;17153;51.212;3.228;2022-08-21T08:59:40;22.10;99.90
23065;DHT22;17153;51.212;3.228;2022-08-21T09:02:06;22.20;99.90
23065;DHT22;17153;51.212;3.228;2022-08-21T09:04:33;22.20;99.90
23065;DHT22;17153;51.212;3.228;2022-08-21T09:09:59;22.30;99.90
23065;DHT22;17153;51.212;3.228;2022-08-21T09:13:02;22.30;99.90
23065;DHT22;17153;51.212;3.228;2022-08-21T09:21:23;22.40;99.90
23065;DHT22;17153;51.212;3.228;2022-08-21T09:27:08;22.60;99.90
23065;DHT22;17153;51.212;3.228;2022-08-21T09:29:36;22.60;99.90
23065;DHT22;17153;51.212;3.228;2022-08-21T09:32:10;22.70;99.90
23065;DHT22;17153;51.212;3.228;2022-08-21T09:34:36;22.70;99.90
23065;DHT22;17153;51.212;3.228;2022-08-21T09:37:02;22.80;99.90
23065;DHT22;17153;51.212;3.228;2022-08-21T09:39:38;22.80;99.90
23065;DHT22;17153;51.212;3.228;2022-08-21T09:42:06;22.90;99.80
23065;DHT22;17153;51.212;3.228;2022-08-21T09:44:37;22.90;99.40
23065;DHT22;17153;51.212;3.228;2022-08-21T09:47:06;22.90;99.40
23065;DHT22;17153;51.212;3.228;2022-08-21T09:49:42;23.00;98.70
23065;DHT22;17153;51.212;3.228;2022-08-21T09:52:19;23.10;98.80
23065;DHT22;17153;51.212;3.228;2022-08-21T09:54:53;23.20;98.60
23065;DHT22;17153;51.212;3.228;2022-08-21T09:57:28;23.30;98.50
23065;DHT22;17153;51.212;3.228;2022-08-21T10:00:15;23.20;98.20
23065;DHT22;17153;51.212;3.228;2022-08-21T10:02:43;23.40;97.30
23065;DHT22;17153;51.212;3.228;2022-08-21T10:05:20;23.50;96.70
23065;DHT22;17153;51.212;3.228;2022-08-21T10:07:48;23.50;96.70
23065;DHT22;17153;51.212;3.228;2022-08-21T10:10:29;23.60;96.90
23065;DHT22;17153;51.212;3.228;2022-08-21T10:15:58;23.70;96.40
23065;DHT22;17153;51.212;3.228;2022-08-21T10:21:27;23.90;96.30
23065;DHT22;17153;51.212;3.228;2022-08-21T10:27:10;24.00;96.30
23065;DHT22;17153;51.212;3.228;2022-08-21T10:30:02;24.10;95.90
23065;DHT22;17153;51.212;3.228;2022-08-21T10:35:04;24.00;95.90
23065;DHT22;17153;51.212;3.228;2022-08-21T10:45:42;24.30;95.10
23065;DHT22;17153;51.212;3.228;2022-08-21T10:48:36;24.40;95.10
23065;DHT22;17153;51.212;3.228;2022-08-21T10:51:10;24.50;93.90
23065;DHT22;17153;51.212;3.228;2022-08-21T10:56:24;24.40;93.40
23065;DHT22;17153;51.212;3.228;2022-08-21T11:02:10;24.50;93.40
23065;DHT22;17153;51.212;3.228;2022-08-21T11:04:52;24.70;93.00
23065;DHT22;17153;51.212;3.228;2022-08-21T11:07:26;24.80;93.20
23065;DHT22;17153;51.212;3.228;2022-08-21T11:09:55;25.00;93.00
23065;DHT22;17153;51.212;3.228;2022-08-21T11:12:44;25.40;92.20
23065;DHT22;17153;51.212;3.228;2022-08-21T11:17:51;25.60;92.10
23065;DHT22;17153;51.212;3.228;2022-08-21T11:20:43;25.70;91.70
23065;DHT22;17153;51.212;3.228;2022-08-21T11:23:21;25.80;91.60
23065;DHT22;17153;51.212;3.228;2022-08-21T11:26:07;25.90;91.40
23065;DHT22;17153;51.212;3.228;2022-08-21T11:28:40;25.90;91.50
23065;DHT22;17153;51.212;3.228;2022-08-21T11:31:33;25.80;91.80
23065;DHT22;17153;51.212;3.228;2022-08-21T11:36:39;25.60;91.50
23065;DHT22;17153;51.212;3.228;2022-08-21T11:42:02;25.40;91.30
23065;DHT22;17153;51.212;3.228;2022-08-21T11:44:48;25.40;91.60
23065;DHT22;17153;51.212;3.228;2022-08-21T11:52:36;25.60;91.00
23065;DHT22;17153;51.212;3.228;2022-08-21T11:55:07;25.60;91.10
23065;DHT22;17153;51.212;3.228;2022-08-21T11:58:17;25.60;91.10
23065;DHT22;17153;51.212;3.228;2022-08-21T12:03:42;25.60;91.00
23065;DHT22;17153;51.212;3.228;2022-08-21T12:06:13;25.60;90.60
23065;DHT22;17153;51.212;3.228;2022-08-21T12:08:41;25.60;90.70
23065;DHT22;17153;51.212;3.228;2022-08-21T12:11:23;25.40;90.90
23065;DHT22;17153;51.212;3.228;2022-08-21T12:16:36;25.40;91.20
23065;DHT22;17153;51.212;3.228;2022-08-21T12:21:34;25.40;91.30
23065;DHT22;17153;51.212;3.228;2022-08-21T12:26:52;25.60;91.20
23065;DHT22;17153;51.212;3.228;2022-08-21T12:29:27;25.40;91.50
23065;DHT22;17153;51.212;3.228;2022-08-21T12:32:02;25.60;91.60
23065;DHT22;17153;51.212;3.228;2022-08-21T12:34:57;25.80;91.50
23065;DHT22;17153;51.212;3.228;2022-08-21T12:37:42;25.80;91.70
23065;DHT22;17153;51.212;3.228;2022-08-21T12:40:22;26.00;91.70
23065;DHT22;17153;51.212;3.228;2022-08-21T12:42:58;26.20;91.50
23065;DHT22;17153;51.212;3.228;2022-08-21T12:45:40;26.30;91.30
23065;DHT22;17153;51.212;3.228;2022-08-21T12:48:21;26.40;91.30
23065;DHT22;17153;51.212;3.228;2022-08-21T12:50:55;26.40;91.30
23065;DHT22;17153;51.212;3.228;2022-08-21T12:56:10;26.70;91.00
23065;DHT22;17153;51.212;3.228;2022-08-21T12:58:40;26.50;91.20
23065;DHT22;17153;51.212;3.228;2022-08-21T13:03:48;26.80;91.10
23065;DHT22;17153;51.212;3.228;2022-08-21T13:06:17;26.80;91.00
23065;DHT22;17153;51.212;3.228;2022-08-21T13:08:45;27.00;90.70
23065;DHT22;17153;51.212;3.228;2022-08-21T13:11:14;27.10;90.20
23065;DHT22;17153;51.212;3.228;2022-08-21T13:13:42;27.00;90.10
23065;DHT22;17153;51.212;3.228;2022-08-21T13:16:09;27.00;90.60
23065;DHT22;17153;51.212;3.228;2022-08-21T13:18:39;26.90;90.40
23065;DHT22;17153;51.212;3.228;2022-08-21T13:21:16;27.00;90.40
23065;DHT22;17153;51.212;3.228;2022-08-21T13:23:42;27.00;90.10
23065;DHT22;17153;51.212;3.228;2022-08-21T13:26:20;27.00;90.10
23065;DHT22;17153;51.212;3.228;2022-08-21T13:28:47;27.00;90.70
23065;DHT22;17153;51.212;3.228;2022-08-21T13:31:20;26.90;90.90
23065;DHT22;17153;51.212;3.228;2022-08-21T13:33:48;26.80;91.10
23065;DHT22;17153;51.212;3.228;2022-08-21T13:36:21;26.60;91.60
23065;DHT22;17153;51.212;3.228;2022-08-21T13:38:51;26.70;91.40
23065;DHT22;17153;51.212;3.228;2022-08-21T13:41:26;26.60;91.50
23065;DHT22;17153;51.212;3.228;2022-08-21T13:44:01;26.60;91.50
23065;DHT22;17153;51.212;3.228;2022-08-21T13:46:30;26.60;91.60
23065;DHT22;17153;51.212;3.228;2022-08-21T13:48:59;26.60;91.50
23065;DHT22;17153;51.212;3.228;2022-08-21T13:51:25;26.50;91.40
23065;DHT22;17153;51.212;3.228;2022-08-21T13:53:52;26.50;91.50
23065;DHT22;17153;51.212;3.228;2022-08-21T13:58:48;26.40;91.60
23065;DHT22;17153;51.212;3.228;2022-08-21T14:01:38;26.40;91.70
23065;DHT22;17153;51.212;3.228;2022-08-21T14:06:50;26.40;91.70
23065;DHT22;17153;51.212;3.228;2022-08-21T14:11:53;26.30;91.90
23065;DHT22;17153;51.212;3.228;2022-08-21T14:14:29;26.40;91.80
23065;DHT22;17153;51.212;3.228;2022-08-21T14:17:00;26.40;91.90
23065;DHT22;17153;51.212;3.228;2022-08-21T14:19:39;26.40;91.80
23065;DHT22;17153;51.212;3.228;2022-08-21T14:25:28;26.30;92.30
23065;DHT22;17153;51.212;3.228;2022-08-21T14:27:54;26.30;92.50
23065;DHT22;17153;51.212;3.228;2022-08-21T14:30:35;26.30;92.50
23065;DHT22;17153;51.212;3.228;2022-08-21T14:33:03;26.30;92.40
23065;DHT22;17153;51.212;3.228;2022-08-21T14:35:30;26.20;92.50
23065;DHT22;17153;51.212;3.228;2022-08-21T14:37:56;26.30;92.60
23065;DHT22;17153;51.212;3.228;2022-08-21T14:40:24;26.40;92.60
23065;DHT22;17153;51.212;3.228;2022-08-21T14:42:50;26.30;92.50
23065;DHT22;17153;51.212;3.228;2022-08-21T14:45:28;26.20;92.60
23065;DHT22;17153;51.212;3.228;2022-08-21T14:47:55;26.40;92.60
23065;DHT22;17153;51.212;3.228;2022-08-21T14:50:24;26.40;92.60
23065;DHT22;17153;51.212;3.228;2022-08-21T14:52:50;26.40;92.50
23065;DHT22;17153;51.212;3.228;2022-08-21T14:55:18;26.30;92.60
23065;DHT22;17153;51.212;3.228;2022-08-21T14:57:52;26.40;92.60
23065;DHT22;17153;51.212;3.228;2022-08-21T15:00:21;26.20;92.70
23065;DHT22;17153;51.212;3.228;2022-08-21T15:02:51;26.10;92.80
23065;DHT22;17153;51.212;3.228;2022-08-21T15:05:19;26.20;93.00
23065;DHT22;17153;51.212;3.228;2022-08-21T15:07:45;26.10;93.10
23065;DHT22;17153;51.212;3.228;2022-08-21T15:10:11;26.10;93.20
23065;DHT22;17153;51.212;3.228;2022-08-21T15:12:37;26.20;93.20
23065;DHT22;17153;51.212;3.228;2022-08-21T15:15:05;26.40;93.00
23065;DHT22;17153;51.212;3.228;2022-08-21T15:17:31;26.40;93.00
23065;DHT22;17153;51.212;3.228;2022-08-21T15:19:57;26.50;92.90
23065;DHT22;17153;51.212;3.228;2022-08-21T15:22:23;26.50;92.90
23065;DHT22;17153;51.212;3.228;2022-08-21T15:24:48;26.50;92.90
23065;DHT22;17153;51.212;3.228;2022-08-21T15:27:16;26.50;93.00
23065;DHT22;17153;51.212;3.228;2022-08-21T15:29:42;26.40;93.00
23065;DHT22;17153;51.212;3.228;2022-08-21T15:32:23;26.50;92.90
23065;DHT22;17153;51.212;3.228;2022-08-21T15:34:51;26.40;93.00
23065;DHT22;17153;51.212;3.228;2022-08-21T15:37:17;26.40;92.90
23065;DHT22;17153;51.212;3.228;2022-08-21T15:39:43;26.40;92.90
23065;DHT22;17153;51.212;3.228;2022-08-21T15:42:09;26.40;92.80
23065;DHT22;17153;51.212;3.228;2022-08-21T15:44:36;26.40;92.90
23065;DHT22;17153;51.212;3.228;2022-08-21T15:47:02;26.40;92.90
23065;DHT22;17153;51.212;3.228;2022-08-21T15:49:27;26.40;93.00
23065;DHT22;17153;51.212;3.228;2022-08-21T15:51:53;26.10;93.10
23065;DHT22;17153;51.212;3.228;2022-08-21T15:54:19;26.10;93.20
23065;DHT22;17153;51.212;3.228;2022-08-21T15:56:46;26.20;93.20
23065;DHT22;17153;51.212;3.228;2022-08-21T15:59:17;26.20;93.20
23065;DHT22;17153;51.212;3.228;2022-08-21T16:01:43;26.20;93.10
23065;DHT22;17153;51.212;3.228;2022-08-21T16:04:12;26.30;93.00
23065;DHT22;17153;51.212;3.228;2022-08-21T16:06:39;26.20;92.90
23065;DHT22;17153;51.212;3.228;2022-08-21T16:09:05;26.20;92.80
23065;DHT22;17153;51.212;3.228;2022-08-21T16:11:30;26.20;92.80
23065;DHT22;17153;51.212;3.228;2022-08-21T16:13:56;26.10;92.70
23065;DHT22;17153;51.212;3.228;2022-08-21T16:16:23;26.20;92.60
23065;DHT22;17153;51.212;3.228;2022-08-21T16:18:49;26.20;92.50
23065;DHT22;17153;51.212;3.228;2022-08-21T16:21:16;26.00;92.20
23065;DHT22;17153;51.212;3.228;2022-08-21T16:23:42;26.10;92.10
23065;DHT22;17153;51.212;3.228;2022-08-21T16:26:11;26.10;92.30
23065;DHT22;17153;51.212;3.228;2022-08-21T16:28:39;26.10;92.40
23065;DHT22;17153;51.212;3.228;2022-08-21T16:31:06;26.10;92.60
23065;DHT22;17153;51.212;3.228;2022-08-21T16:33:38;26.00;92.60
23065;DHT22;17153;51.212;3.228;2022-08-21T16:36:05;26.00;92.60
23065;DHT22;17153;51.212;3.228;2022-08-21T16:38:31;26.10;92.90
23065;DHT22;17153;51.212;3.228;2022-08-21T16:40:58;26.00;92.70
23065;DHT22;17153;51.212;3.228;2022-08-21T16:43:27;26.00;92.80
23065;DHT22;17153;51.212;3.228;2022-08-21T16:45:55;26.00;93.20
23065;DHT22;17153;51.212;3.228;2022-08-21T16:48:22;26.00;92.80
23065;DHT22;17153;51.212;3.228;2022-08-21T16:50:48;26.00;92.70
23065;DHT22;17153;51.212;3.228;2022-08-21T16:53:13;26.00;92.60
23065;DHT22;17153;51.212;3.228;2022-08-21T16:55:39;26.00;92.40
23065;DHT22;17153;51.212;3.228;2022-08-21T16:58:10;26.00;92.40
23065;DHT22;17153;51.212;3.228;2022-08-21T17:00:38;26.00;92.50
23065;DHT22;17153;51.212;3.228;2022-08-21T17:03:03;25.80;92.50